Terminal Aerodrome Forecast
Issued by NWS Green Bay, WI

Home | Current Version | Previous Version | Text Only | Print | Product List | Glossary Off
Versions: 1 2 3 4 5 6 7 8 9 10 11 12 13 14 15 16 17 18 19 20 21 22 23 24 25 26 27

000
FTUS43 KGRB 131700
TAFGRB
TAF
KGRB 131740Z 1318/1418 32007KT P6SM SCT040
      TEMPO 1319/1322 BKN040
     FM140000 19004KT P6SM FEW050
     FM140900 21003KT P6SM SCT250
     FM141500 22009KT P6SM SCT120 BKN250=

USA.gov is the U.S. government's official web portal to all federal, state and local government web resources and services.